createdAt,value
2022-10-20T00:00:21.436Z,70.50
2022-10-20T00:02:48.081Z,72.80
2022-10-20T00:05:14.790Z,75.10
2022-10-20T00:07:41.496Z,76.70
2022-10-20T00:10:08.667Z,76.90
2022-10-20T00:12:35.657Z,77.30
2022-10-20T00:15:02.566Z,76.90
2022-10-20T00:17:29.288Z,76.80
2022-10-20T00:19:55.958Z,76.80
2022-10-20T00:22:22.689Z,76.90
2022-10-20T00:24:49.259Z,76.90
2022-10-20T00:27:15.860Z,75.70
2022-10-20T00:29:42.461Z,74.80
2022-10-20T00:32:09.095Z,74.00
2022-10-20T00:34:35.656Z,74.20
2022-10-20T00:37:02.286Z,74.10
2022-10-20T00:39:28.858Z,73.20
2022-10-20T00:41:55.425Z,74.00
2022-10-20T00:44:47.094Z,73.50
2022-10-20T00:47:17.919Z,73.60
2022-10-20T00:49:45.074Z,72.70
2022-10-20T00:52:12.189Z,71.90
2022-10-20T00:54:39.075Z,71.60
2022-10-20T00:57:06.066Z,71.00
2022-10-20T00:59:36.564Z,70.40
2022-10-20T01:02:06.731Z,71.10
2022-10-20T01:04:36.281Z,70.50
2022-10-20T01:07:03.344Z,70.30
2022-10-20T01:09:30.984Z,69.10
2022-10-20T01:12:26.329Z,69.50
2022-10-20T01:15:14.851Z,69.90
2022-10-20T01:18:01.589Z,70.30
2022-10-20T01:21:04.819Z,70.70
2022-10-20T01:23:44.800Z,70.50
2022-10-20T01:26:45.330Z,69.60
2022-10-20T01:29:42.904Z,69.50
2022-10-20T01:32:14.808Z,72.20
2022-10-20T01:34:56.394Z,72.40
2022-10-20T01:37:48.448Z,72.30
2022-10-20T01:40:26.179Z,70.40
2022-10-20T01:42:54.915Z,68.00
2022-10-20T01:45:24.225Z,68.20
2022-10-20T01:47:53.567Z,67.90
2022-10-20T01:50:21.574Z,67.90
2022-10-20T01:52:48.266Z,67.90
2022-10-20T01:55:17.763Z,67.80
2022-10-20T01:58:20.776Z,70.10
2022-10-20T02:00:49.355Z,70.90
2022-10-20T02:03:34.918Z,70.10
2022-10-20T02:06:19.743Z,69.30
2022-10-20T02:09:08.555Z,68.60
2022-10-20T02:12:01.253Z,67.90
2022-10-20T02:14:28.605Z,67.80
2022-10-20T02:16:59.183Z,68.10
2022-10-20T02:19:28.558Z,68.10
2022-10-20T02:21:56.444Z,68.60
2022-10-20T02:24:24.896Z,68.90
2022-10-20T02:26:52.208Z,69.70
2022-10-20T02:29:20.748Z,70.50
2022-10-20T02:31:47.605Z,69.70
2022-10-20T02:34:14.572Z,69.50
2022-10-20T02:36:42.180Z,69.30
2022-10-20T02:39:09.417Z,71.70
2022-10-20T02:41:36.349Z,75.80
2022-10-20T02:44:02.927Z,76.50
2022-10-20T02:46:29.565Z,77.80
2022-10-20T02:48:56.156Z,79.20
2022-10-20T02:51:22.753Z,78.70
2022-10-20T02:53:49.977Z,77.90
2022-10-20T02:56:16.635Z,77.30
2022-10-20T02:58:43.200Z,76.60
2022-10-20T03:01:09.769Z,75.90
2022-10-20T03:03:36.441Z,75.80
2022-10-20T03:06:20.933Z,74.30
2022-10-20T03:08:47.513Z,73.70
2022-10-20T03:11:14.088Z,73.80
2022-10-20T03:13:40.878Z,73.00
2022-10-20T03:16:07.588Z,72.90
2022-10-20T03:18:34.222Z,71.70
2022-10-20T03:21:01.174Z,71.60
2022-10-20T03:23:27.759Z,71.50
2022-10-20T03:26:00.493Z,71.50
2022-10-20T03:28:27.102Z,72.10
2022-10-20T03:30:53.787Z,74.10
2022-10-20T03:33:20.377Z,75.60
2022-10-20T03:35:46.953Z,75.70
2022-10-20T03:38:13.503Z,74.10
2022-10-20T03:40:40.083Z,73.80
2022-10-20T03:43:06.675Z,75.70
2022-10-20T03:45:33.318Z,75.50
2022-10-20T03:47:59.869Z,75.60
2022-10-20T03:50:26.620Z,74.80
2022-10-20T03:52:53.202Z,73.50
2022-10-20T03:55:19.807Z,73.20
2022-10-20T03:57:46.385Z,72.80
2022-10-20T04:00:13.134Z,73.10
2022-10-20T04:02:46.413Z,72.70
2022-10-20T04:05:13.911Z,72.70
2022-10-20T04:07:40.444Z,72.60
2022-10-20T04:10:07.552Z,73.80
2022-10-20T04:12:34.459Z,75.30
2022-10-20T04:15:01.433Z,75.40
2022-10-20T04:17:28.143Z,76.00
2022-10-20T04:19:55.293Z,77.20
2022-10-20T04:22:21.833Z,78.30
2022-10-20T04:24:48.369Z,78.20
2022-10-20T04:27:14.912Z,78.30
2022-10-20T04:29:41.488Z,77.50
2022-10-20T04:32:08.074Z,76.40
2022-10-20T04:34:34.906Z,76.00
2022-10-20T04:37:01.621Z,76.50
2022-10-20T04:39:28.285Z,76.90
2022-10-20T04:41:54.868Z,75.40
2022-10-20T04:44:21.445Z,75.40
2022-10-20T04:46:48.121Z,75.40
2022-10-20T04:49:15.165Z,75.30
2022-10-20T04:51:41.892Z,74.30
2022-10-20T04:54:08.557Z,74.00
2022-10-20T04:56:35.135Z,74.30
2022-10-20T04:59:03.082Z,75.30
2022-10-20T05:01:30.523Z,78.30
2022-10-20T05:03:57.245Z,79.70
2022-10-20T05:06:23.865Z,81.40
2022-10-20T05:08:51.823Z,83.00
2022-10-20T05:11:19.848Z,83.60
2022-10-20T05:13:46.499Z,83.70
2022-10-20T05:16:13.550Z,83.70
2022-10-20T05:18:40.681Z,84.00
2022-10-20T05:21:09.784Z,84.60
2022-10-20T05:23:37.467Z,84.50
2022-10-20T05:26:05.175Z,84.70
2022-10-20T05:28:32.075Z,84.10
2022-10-20T05:31:05.739Z,84.40
2022-10-20T05:33:32.676Z,84.10
2022-10-20T05:35:59.233Z,84.70
2022-10-20T05:38:25.816Z,83.80
2022-10-20T05:40:52.515Z,83.90
2022-10-20T05:43:19.099Z,83.80
2022-10-20T05:45:45.659Z,83.80
2022-10-20T05:48:12.215Z,82.50
2022-10-20T05:50:38.853Z,80.50
2022-10-20T05:53:05.536Z,79.30
2022-10-20T05:55:32.704Z,77.40
2022-10-20T05:57:59.263Z,77.10
2022-10-20T06:00:30.941Z,76.70
2022-10-20T06:02:57.926Z,77.70
2022-10-20T06:05:24.598Z,80.80
2022-10-20T06:07:52.979Z,82.00
2022-10-20T06:10:19.510Z,83.00
2022-10-20T06:12:46.058Z,84.00
2022-10-20T06:15:12.666Z,84.00
2022-10-20T06:17:39.344Z,82.50
2022-10-20T06:20:06.127Z,82.60
2022-10-20T06:22:32.730Z,82.70
2022-10-20T06:24:59.267Z,82.40
2022-10-20T06:27:25.803Z,81.40
2022-10-20T06:29:54.695Z,80.30
2022-10-20T06:32:21.269Z,79.80
2022-10-20T06:34:47.851Z,78.80
2022-10-20T06:37:14.435Z,78.30
2022-10-20T06:39:40.995Z,78.10
2022-10-20T06:42:11.016Z,78.00
2022-10-20T06:44:38.832Z,76.70
2022-10-20T06:47:10.045Z,76.80
2022-10-20T06:49:36.766Z,74.80
2022-10-20T06:52:03.523Z,73.20
2022-10-20T06:54:30.305Z,69.00
2022-10-20T06:56:56.846Z,68.90
2022-10-20T06:59:23.415Z,64.80
2022-10-20T07:01:50.076Z,60.90
2022-10-20T07:04:16.846Z,56.90
2022-10-20T07:06:44.664Z,50.30
2022-10-20T07:09:13.864Z,50.00
2022-10-20T07:11:41.179Z,48.10
2022-10-20T07:14:07.823Z,46.60
2022-10-20T07:16:34.945Z,40.00
2022-10-20T07:19:02.538Z,38.70
2022-10-20T07:21:34.535Z,36.70
2022-10-20T07:24:04.245Z,36.90
2022-10-20T07:26:32.074Z,28.80
2022-10-20T07:28:59.653Z,27.80
2022-10-20T07:31:33.772Z,27.50
2022-10-20T07:34:13.163Z,26.50
2022-10-20T07:36:46.926Z,23.00
2022-10-20T07:39:13.536Z,21.90
2022-10-20T07:41:40.448Z,17.50
2022-10-20T07:44:07.556Z,14.10
2022-10-20T07:46:34.119Z,10.20
2022-10-20T07:49:23.880Z,7.90
2022-10-20T07:51:47.357Z,4.20
2022-10-20T07:54:13.930Z,3.70
2022-10-20T07:56:41.781Z,1.30
2022-10-20T07:59:09.160Z,1.00
2022-10-20T08:01:35.820Z,1.00
2022-10-20T08:04:02.552Z,1.00
2022-10-20T08:06:29.323Z,1.00
2022-10-20T08:08:55.954Z,1.00
2022-10-20T08:11:22.824Z,1.00
2022-10-20T08:13:49.413Z,1.00
2022-10-20T08:16:28.275Z,1.00
2022-10-20T08:18:59.542Z,1.00
2022-10-20T08:21:26.309Z,1.00
2022-10-20T08:23:52.869Z,1.00
2022-10-20T08:26:20.638Z,1.00
2022-10-20T08:28:48.113Z,1.00
2022-10-20T08:31:14.810Z,1.00
2022-10-20T08:33:41.353Z,1.00
2022-10-20T08:36:09.301Z,1.00
2022-10-20T08:38:36.344Z,1.00
2022-10-20T08:41:05.106Z,1.00
2022-10-20T08:43:33.509Z,1.00
2022-10-20T08:46:00.108Z,1.00
2022-10-20T08:48:28.187Z,1.00
2022-10-20T08:50:56.002Z,1.00
2022-10-20T08:53:23.820Z,1.00
2022-10-20T08:55:51.213Z,1.00
2022-10-20T08:58:22.004Z,1.00
2022-10-20T09:00:50.659Z,1.00
2022-10-20T09:03:19.079Z,1.00
2022-10-20T09:05:47.748Z,1.00
2022-10-20T09:08:14.407Z,1.00
2022-10-20T09:10:51.858Z,1.00
2022-10-20T09:13:26.151Z,1.00
2022-10-20T09:16:05.649Z,1.00
2022-10-20T09:18:32.944Z,1.00
2022-10-20T09:21:13.394Z,1.00
2022-10-20T09:23:42.430Z,1.00
2022-10-20T09:26:37.625Z,1.00
2022-10-20T09:29:14.713Z,1.00
2022-10-20T09:31:46.029Z,1.00
2022-10-20T09:34:26.082Z,1.00
2022-10-20T09:36:55.708Z,1.00
2022-10-20T09:39:23.922Z,1.00
2022-10-20T09:41:50.899Z,1.00
2022-10-20T09:44:23.677Z,1.00
2022-10-20T09:46:52.158Z,1.00
2022-10-20T09:49:27.591Z,1.00
2022-10-20T09:51:54.249Z,1.00
2022-10-20T09:54:22.389Z,1.00
2022-10-20T09:56:49.606Z,1.00
2022-10-20T09:59:20.744Z,1.00
2022-10-20T10:02:13.513Z,1.00
2022-10-20T10:04:41.749Z,1.00
2022-10-20T10:07:26.877Z,1.00
2022-10-20T10:09:57.693Z,1.00
2022-10-20T10:12:25.190Z,1.00
2022-10-20T10:14:55.561Z,1.00
2022-10-20T10:17:29.092Z,1.00
2022-10-20T10:19:56.452Z,1.00
2022-10-20T10:22:23.241Z,1.00
2022-10-20T10:24:50.285Z,1.00
2022-10-20T10:27:26.012Z,1.00
2022-10-20T10:29:53.314Z,1.00
2022-10-20T10:32:22.931Z,1.00
2022-10-20T10:34:49.449Z,1.00
2022-10-20T10:37:17.302Z,1.00
2022-10-20T10:39:43.958Z,1.00
2022-10-20T10:42:19.201Z,1.00
2022-10-20T10:44:57.519Z,1.00
2022-10-20T10:47:27.055Z,1.00
2022-10-20T10:50:02.965Z,1.00
2022-10-20T10:52:39.523Z,1.00
2022-10-20T10:55:30.452Z,1.00
2022-10-20T11:00:56.276Z,1.00
2022-10-20T11:03:37.641Z,1.00
2022-10-20T11:06:11.660Z,1.00
2022-10-20T11:09:05.421Z,1.00
2022-10-20T11:11:39.247Z,1.00
2022-10-20T11:14:21.198Z,1.00
2022-10-20T11:17:21.914Z,1.00
2022-10-20T11:19:48.547Z,1.00
2022-10-20T11:22:43.791Z,1.00
2022-10-20T11:25:34.178Z,1.00
2022-10-20T11:28:01.105Z,1.00
2022-10-20T11:30:30.043Z,1.00
2022-10-20T11:33:13.410Z,1.00
2022-10-20T11:36:01.040Z,1.00
2022-10-20T11:38:39.087Z,1.00
2022-10-20T11:41:24.995Z,1.00
2022-10-20T11:44:18.539Z,1.00
2022-10-20T11:46:52.860Z,1.00
2022-10-20T11:49:19.979Z,1.00
2022-10-20T11:51:54.939Z,1.00
2022-10-20T11:54:42.956Z,1.00
2022-10-20T11:57:57.702Z,1.00
2022-10-20T12:00:35.525Z,1.00
2022-10-20T12:03:04.904Z,1.00
2022-10-20T12:05:31.461Z,1.00
2022-10-20T12:08:28.708Z,1.00
2022-10-20T12:11:16.686Z,1.00
2022-10-20T12:13:53.754Z,1.00
2022-10-20T12:16:54.460Z,1.00
2022-10-20T12:19:24.393Z,1.00
2022-10-20T12:21:58.397Z,1.00
2022-10-20T12:24:37.188Z,1.00
2022-10-20T12:27:15.296Z,1.00
2022-10-20T12:29:41.878Z,1.00
2022-10-20T12:32:26.600Z,1.00
2022-10-20T12:34:55.014Z,1.00
2022-10-20T12:37:24.598Z,1.00
2022-10-20T12:39:52.726Z,1.00
2022-10-20T12:42:20.939Z,1.00
2022-10-20T12:44:47.974Z,1.00
2022-10-20T12:47:25.356Z,1.00
2022-10-20T12:49:56.949Z,1.00
2022-10-20T12:52:27.175Z,1.00
2022-10-20T12:54:55.107Z,1.00
2022-10-20T12:57:26.069Z,1.00
2022-10-20T12:59:52.645Z,1.00
2022-10-20T13:02:29.275Z,1.00
2022-10-20T13:04:56.372Z,1.00
2022-10-20T13:07:41.774Z,1.00
2022-10-20T13:10:26.868Z,1.00
2022-10-20T13:12:54.221Z,1.00
2022-10-20T13:15:21.974Z,1.00
2022-10-20T13:17:51.787Z,1.00
2022-10-20T13:20:24.378Z,1.00
2022-10-20T13:22:52.872Z,1.00
2022-10-20T13:25:31.214Z,1.00
2022-10-20T13:28:13.049Z,1.00
2022-10-20T13:30:59.895Z,1.00
2022-10-20T13:33:44.773Z,1.00
2022-10-20T13:36:33.813Z,1.00
2022-10-20T13:39:00.374Z,1.00
2022-10-20T13:41:36.963Z,1.00
2022-10-20T13:44:04.621Z,1.00
2022-10-20T13:46:34.916Z,1.00
2022-10-20T13:49:04.607Z,1.00
2022-10-20T13:51:38.737Z,1.00
2022-10-20T13:54:06.578Z,1.00
2022-10-20T13:56:35.032Z,1.00
2022-10-20T13:59:06.112Z,1.00
2022-10-20T14:01:34.793Z,1.00
2022-10-20T14:04:02.071Z,1.00
2022-10-20T14:06:29.765Z,1.00
2022-10-20T14:08:58.115Z,1.00
2022-10-20T14:11:33.649Z,1.00
2022-10-20T14:14:01.251Z,1.00
2022-10-20T14:16:29.095Z,1.00
2022-10-20T14:19:03.748Z,1.00
2022-10-20T14:21:38.692Z,1.00
2022-10-20T14:24:06.416Z,1.00
2022-10-20T14:26:33.111Z,1.00
2022-10-20T14:29:01.655Z,1.00
2022-10-20T14:31:28.319Z,1.00
2022-10-20T14:33:54.914Z,1.00
2022-10-20T14:39:00.610Z,3.30
2022-10-20T14:41:28.377Z,4.70
2022-10-20T14:43:58.961Z,4.70
2022-10-20T14:46:40.710Z,5.50
2022-10-20T14:49:23.519Z,5.50
2022-10-20T14:51:53.150Z,5.60
2022-10-20T14:54:19.751Z,6.70
2022-10-20T14:56:48.455Z,8.30
2022-10-20T14:59:16.109Z,8.10
2022-10-20T15:01:56.117Z,9.80
2022-10-20T15:04:26.447Z,10.60
2022-10-20T15:07:11.566Z,10.20
2022-10-20T15:09:42.450Z,9.10
2022-10-20T15:12:15.203Z,9.70
2022-10-20T15:14:43.752Z,10.30
2022-10-20T15:17:28.948Z,11.40
2022-10-20T15:19:55.624Z,10.10
2022-10-20T15:22:22.220Z,11.20
2022-10-20T15:24:49.927Z,11.50
2022-10-20T15:27:17.663Z,13.20
2022-10-20T15:29:53.046Z,12.40
2022-10-20T15:32:19.653Z,12.70
2022-10-20T15:34:46.233Z,14.80
2022-10-20T15:37:12.866Z,14.70
2022-10-20T15:39:39.451Z,15.50
2022-10-20T15:42:11.096Z,19.40
2022-10-20T15:44:38.113Z,21.00
2022-10-20T15:47:04.923Z,19.20
2022-10-20T15:49:31.536Z,21.70
2022-10-20T15:51:58.172Z,21.00
2022-10-20T15:54:24.818Z,20.70
2022-10-20T15:56:51.465Z,21.10
2022-10-20T15:59:18.290Z,21.20
2022-10-20T16:01:44.952Z,23.20
2022-10-20T16:04:23.603Z,22.20
2022-10-20T16:06:52.473Z,23.50
2022-10-20T16:09:20.465Z,25.40
2022-10-20T16:11:47.153Z,23.50
2022-10-20T16:14:15.496Z,23.40
2022-10-20T16:16:42.466Z,24.20
2022-10-20T16:19:09.189Z,23.40
2022-10-20T16:21:35.853Z,23.40
2022-10-20T16:24:02.706Z,23.30
2022-10-20T16:26:29.410Z,23.30
2022-10-20T16:28:56.003Z,23.30
2022-10-20T16:31:22.663Z,23.40
2022-10-20T16:33:49.217Z,25.20
2022-10-20T16:36:16.779Z,26.30
2022-10-20T16:38:43.698Z,28.80
2022-10-20T16:41:11.673Z,27.70
2022-10-20T16:43:42.662Z,27.60
2022-10-20T16:46:10.411Z,29.90
2022-10-20T16:48:39.033Z,30.10
2022-10-20T16:51:08.032Z,31.40
2022-10-20T16:53:34.824Z,32.50
2022-10-20T16:56:01.453Z,32.50
2022-10-20T16:58:28.304Z,32.50
2022-10-20T17:01:02.681Z,32.60
2022-10-20T17:03:30.243Z,32.60
2022-10-20T17:05:58.200Z,32.40
2022-10-20T17:08:25.863Z,32.60
2022-10-20T17:10:56.619Z,32.40
2022-10-20T17:13:23.430Z,32.50
2022-10-20T17:15:50.422Z,32.90
2022-10-20T17:18:17.396Z,34.50
2022-10-20T17:20:44.274Z,34.30
2022-10-20T17:23:10.967Z,33.80
2022-10-20T17:25:37.881Z,35.00
2022-10-20T17:28:04.570Z,35.80
2022-10-20T17:30:31.185Z,36.90
2022-10-20T17:32:57.784Z,38.90
2022-10-20T17:35:24.396Z,40.00
2022-10-20T17:37:50.975Z,39.40
2022-10-20T17:42:49.332Z,37.00
2022-10-20T17:45:15.985Z,37.30
2022-10-20T17:47:42.614Z,37.10
2022-10-20T17:52:40.968Z,36.80
2022-10-20T17:55:07.789Z,37.80
2022-10-20T17:57:34.411Z,37.80
2022-10-20T18:00:04.914Z,38.30
2022-10-20T18:02:34.763Z,38.30
2022-10-20T18:05:01.558Z,37.20
2022-10-20T18:07:28.176Z,37.80
2022-10-20T18:09:54.898Z,39.30
2022-10-20T18:12:21.637Z,38.50
2022-10-20T18:14:48.250Z,39.10
2022-10-20T18:17:14.945Z,37.70
2022-10-20T18:19:41.697Z,38.60
2022-10-20T18:22:08.316Z,40.40
2022-10-20T18:24:35.696Z,43.10
2022-10-20T18:27:02.488Z,43.00
2022-10-20T18:29:29.093Z,42.90
2022-10-20T18:31:55.682Z,43.00
2022-10-20T18:34:22.331Z,43.00
2022-10-20T18:36:49.653Z,68.30
2022-10-20T18:39:16.449Z,46.90
2022-10-20T18:41:44.335Z,36.50
2022-10-20T18:44:12.731Z,40.00
2022-10-20T18:46:39.647Z,42.30
2022-10-20T18:49:07.167Z,27.80
2022-10-20T18:51:33.910Z,27.10
2022-10-20T18:54:01.003Z,29.00
2022-10-20T18:56:28.619Z,28.00
2022-10-20T18:58:56.589Z,29.20
2022-10-20T19:01:24.480Z,28.90
2022-10-20T19:03:51.987Z,23.50
2022-10-20T19:06:20.080Z,24.30
2022-10-20T19:08:51.091Z,28.30
2022-10-20T19:11:17.921Z,25.40
2022-10-20T19:13:44.879Z,22.10
2022-10-20T19:16:12.948Z,24.20
2022-10-20T19:18:42.486Z,22.60
2022-10-20T19:21:09.117Z,21.90
2022-10-20T19:23:38.393Z,20.30
2022-10-20T19:26:06.371Z,21.60
2022-10-20T19:28:34.462Z,23.40
2022-10-20T19:31:01.317Z,26.60
2022-10-20T19:33:28.338Z,28.80
2022-10-20T19:35:54.971Z,30.20
2022-10-20T19:38:21.565Z,32.20
2022-10-20T19:40:48.132Z,30.60
2022-10-20T19:43:14.777Z,29.80
2022-10-20T19:45:41.366Z,28.40
2022-10-20T19:48:07.974Z,31.70
2022-10-20T19:50:35.085Z,31.90
2022-10-20T19:53:01.623Z,31.80
2022-10-20T19:55:28.250Z,35.80
2022-10-20T19:57:55.086Z,35.50
2022-10-20T20:00:21.650Z,36.30
2022-10-20T20:02:48.283Z,39.40
2022-10-20T20:05:14.891Z,41.00
2022-10-20T20:07:41.447Z,38.60
2022-10-20T20:10:08.076Z,40.10
2022-10-20T20:12:34.650Z,40.00
2022-10-20T20:15:01.241Z,39.50
2022-10-20T20:17:27.864Z,41.30
2022-10-20T20:19:54.486Z,42.70
2022-10-20T20:22:21.088Z,42.80
2022-10-20T20:24:47.657Z,42.70
2022-10-20T20:27:14.542Z,39.60
2022-10-20T20:29:41.112Z,40.00
2022-10-20T20:32:07.667Z,40.50
2022-10-20T20:34:34.234Z,39.90
2022-10-20T20:37:00.831Z,39.30
2022-10-20T20:39:27.540Z,38.50
2022-10-20T20:41:54.131Z,42.60
2022-10-20T20:44:20.788Z,41.70
2022-10-20T20:46:47.409Z,42.70
2022-10-20T20:49:14.170Z,43.40
2022-10-20T20:51:40.794Z,42.60
2022-10-20T20:54:08.824Z,40.00
2022-10-20T20:56:35.588Z,37.30
2022-10-20T20:59:02.702Z,36.00
2022-10-20T21:01:31.872Z,36.20
2022-10-20T21:03:59.757Z,36.90
2022-10-20T21:06:33.928Z,36.80
2022-10-20T21:09:05.599Z,37.40
2022-10-20T21:11:32.200Z,38.40
2022-10-20T21:13:59.248Z,39.30
2022-10-20T21:16:27.253Z,36.90
2022-10-20T21:19:04.175Z,36.90
2022-10-20T21:21:31.930Z,35.70
2022-10-20T21:23:59.156Z,35.60
2022-10-20T21:26:26.407Z,36.80
2022-10-20T21:28:53.179Z,36.30
2022-10-20T21:31:20.911Z,37.70
2022-10-20T21:33:54.853Z,36.90
2022-10-20T21:36:21.857Z,37.50
2022-10-20T21:38:48.449Z,37.60
2022-10-20T21:41:19.327Z,39.70
2022-10-20T21:43:47.427Z,42.30
2022-10-20T21:46:24.469Z,43.20
2022-10-20T21:48:52.148Z,44.60
2022-10-20T21:51:20.398Z,44.30
2022-10-20T21:53:46.976Z,42.30
2022-10-20T21:56:14.293Z,44.20
2022-10-20T21:58:40.951Z,45.00
2022-10-20T22:01:15.250Z,42.70
2022-10-20T22:03:42.565Z,42.20
2022-10-20T22:06:10.161Z,42.20
2022-10-20T22:08:37.813Z,42.40
2022-10-20T22:11:12.392Z,42.20
2022-10-20T22:13:39.000Z,42.20
2022-10-20T22:16:06.586Z,44.20
2022-10-20T22:18:33.236Z,45.50
2022-10-20T22:21:11.127Z,47.30
2022-10-20T22:23:40.037Z,45.60
2022-10-20T22:26:06.625Z,45.40
2022-10-20T22:28:36.331Z,45.90
2022-10-20T22:31:03.148Z,45.50
2022-10-20T22:33:29.797Z,46.70
2022-10-20T22:35:56.416Z,49.70
2022-10-20T22:38:22.945Z,50.30
2022-10-20T22:40:49.653Z,49.20
2022-10-20T22:43:16.261Z,50.30
2022-10-20T22:45:42.814Z,51.50
2022-10-20T22:48:09.349Z,51.60
2022-10-20T22:50:35.973Z,52.80
2022-10-20T22:53:02.567Z,56.00
2022-10-20T22:55:29.221Z,56.70
2022-10-20T22:57:55.936Z,56.70
2022-10-20T23:00:22.552Z,56.80
2022-10-20T23:02:49.233Z,57.20
2022-10-20T23:05:15.831Z,59.10
2022-10-20T23:07:42.399Z,61.00
2022-10-20T23:10:09.239Z,62.20
2022-10-20T23:12:36.289Z,62.70
2022-10-20T23:15:03.607Z,62.70
2022-10-20T23:17:30.337Z,62.70
2022-10-20T23:19:57.039Z,62.70
2022-10-20T23:22:23.579Z,62.70
2022-10-20T23:24:50.198Z,59.40
2022-10-20T23:27:16.906Z,58.00
2022-10-20T23:29:43.471Z,60.30
2022-10-20T23:32:10.079Z,59.00
2022-10-20T23:34:36.675Z,59.00
2022-10-20T23:37:03.422Z,60.40
2022-10-20T23:39:30.007Z,62.60
2022-10-20T23:41:56.609Z,62.70
2022-10-20T23:44:23.188Z,63.40
2022-10-20T23:46:51.902Z,62.60
2022-10-20T23:49:18.466Z,62.70
2022-10-20T23:51:45.069Z,62.60
2022-10-20T23:54:11.724Z,61.90
2022-10-20T23:56:38.293Z,62.60
2022-10-20T23:59:04.941Z,60.40
